Time;durP1;ratioP1;P1;durP2;ratioP2;P2;SDS_P1;SDS_P2;PMS_P1;PMS_P2;Temp;Humidity;BMP_temperature;BMP_pressure;BME280_temperature;BME280_humidity;BME280_pressure;Samples;Min_cycle;Max_cycle;Signal;HPM_P1;HPM_P2
2021/06/18 00:02:24;;;;;;;15.05;10.98;;;20.90;78.70;;;;;;5053556;28;20192;-86
2021/06/18 00:04:50;;;;;;;16.42;10.10;;;20.90;79.30;;;;;;5035550;28;20703;-87
2021/06/18 00:07:16;;;;;;;15.50;10.68;;;21.00;78.30;;;;;;5053781;28;20256;-87
2021/06/18 00:09:42;;;;;;;13.93;11.20;;;21.00;78.50;;;;;;5053474;28;20251;-86
2021/06/18 00:12:08;;;;;;;16.85;11.13;;;20.90;79.40;;;;;;5035535;28;20537;-86
2021/06/18 00:14:34;;;;;;;21.15;11.43;;;20.70;80.50;;;;;;5035262;28;20802;-86
2021/06/18 00:17:00;;;;;;;12.65;10.40;;;20.50;81.10;;;;;;5053299;28;20263;-86
2021/06/18 00:19:25;;;;;;;15.10;11.63;;;20.40;81.20;;;;;;5053283;28;20210;-86
2021/06/18 00:21:51;;;;;;;15.35;10.77;;;20.40;81.60;;;;;;5053566;28;20200;-86
2021/06/18 00:24:17;;;;;;;13.80;10.15;;;20.40;80.90;;;;;;5035431;28;20234;-87
2021/06/18 00:26:42;;;;;;;11.27;9.57;;;20.60;79.70;;;;;;5053251;28;20172;-86
2021/06/18 00:29:08;;;;;;;14.13;9.75;;;20.70;79.50;;;;;;5035473;28;20183;-86
2021/06/18 00:31:34;;;;;;;13.80;10.05;;;20.70;79.20;;;;;;5053218;28;20635;-86
2021/06/18 00:33:59;;;;;;;16.88;10.60;;;20.70;79.10;;;;;;5035245;28;20200;-86
2021/06/18 00:36:25;;;;;;;13.90;10.73;;;20.70;78.90;;;;;;5052818;28;20545;-86
2021/06/18 00:38:51;;;;;;;10.75;9.63;;;20.70;79.00;;;;;;5035348;28;20226;-87
2021/06/18 00:41:17;;;;;;;12.10;9.75;;;20.70;79.80;;;;;;5053054;28;20199;-87
2021/06/18 00:43:43;;;;;;;12.70;9.18;;;20.40;80.40;;;;;;5035203;28;20203;-87
2021/06/18 00:46:10;;;;;;;12.20;9.55;;;20.40;80.30;;;;;;5035262;28;20263;-87
2021/06/18 00:48:36;;;;;;;14.60;9.32;;;20.40;79.90;;;;;;5035308;28;20176;-87
2021/06/18 00:51:03;;;;;;;17.42;10.23;;;20.30;80.40;;;;;;5053058;28;20179;-87
2021/06/18 00:53:29;;;;;;;16.77;9.05;;;20.00;80.80;;;;;;5035201;28;20627;-87
2021/06/18 00:55:55;;;;;;;16.40;9.02;;;20.00;80.90;;;;;;5035194;28;20208;-87
2021/06/18 00:58:21;;;;;;;13.30;8.70;;;20.10;80.70;;;;;;5052940;28;20168;-87
2021/06/18 01:00:47;;;;;;;19.02;10.02;;;20.10;80.50;;;;;;5034951;28;20210;-87
2021/06/18 01:03:13;;;;;;;22.25;11.48;;;20.00;80.20;;;;;;5035151;28;20168;-87
2021/06/18 01:05:40;;;;;;;15.52;12.35;;;20.10;79.60;;;;;;5052895;28;20200;-87
2021/06/18 01:08:28;;;;;;;25.60;15.10;;;20.00;80.80;;;;;;5035130;28;20597;-87
2021/06/18 01:10:56;;;;;;;16.95;14.40;;;19.90;81.40;;;;;;5035059;28;20172;-87
2021/06/18 01:13:37;;;;;;;22.65;14.85;;;19.70;82.40;;;;;;5034966;28;20180;-87
2021/06/18 01:16:12;;;;;;;18.33;15.75;;;19.70;82.90;;;;;;5052816;28;20164;-87
2021/06/18 01:18:53;;;;;;;16.35;14.63;;;19.60;83.20;;;;;;5035096;28;20179;-87
2021/06/18 01:21:26;;;;;;;19.80;17.63;;;19.70;82.80;;;;;;5034896;28;20192;-87
2021/06/18 01:24:30;;;;;;;20.83;17.67;;;19.70;82.40;;;;;;5035175;28;20199;-87
2021/06/18 01:27:17;;;;;;;22.50;17.73;;;19.80;82.50;;;;;;5034969;28;20172;-87
2021/06/18 01:29:49;;;;;;;24.15;17.13;;;19.90;82.00;;;;;;5034934;28;20153;-87
2021/06/18 01:32:28;;;;;;;19.67;17.67;;;19.90;81.70;;;;;;5034909;28;20199;-87
2021/06/18 01:34:54;;;;;;;17.95;16.02;;;20.00;81.50;;;;;;5034793;28;20759;-87
2021/06/18 01:37:25;;;;;;;25.90;22.55;;;20.00;81.50;;;;;;5034809;28;20182;-87
2021/06/18 01:39:52;;;;;;;23.92;19.77;;;19.90;81.60;;;;;;5035059;28;20516;-87
2021/06/18 01:42:18;;;;;;;39.25;26.67;;;19.90;81.50;;;;;;5052697;28;20204;-87
2021/06/18 01:44:45;;;;;;;28.48;24.63;;;19.80;83.60;;;;;;5034694;28;20191;-87
2021/06/18 01:47:13;;;;;;;29.35;25.30;;;19.80;83.00;;;;;;5035812;28;20222;-87
2021/06/18 01:49:41;;;;;;;44.88;28.92;;;19.80;83.20;;;;;;5038508;28;20173;-87
2021/06/18 01:52:11;;;;;;;33.88;26.50;;;19.80;82.90;;;;;;5056002;28;20176;-87
2021/06/18 01:54:39;;;;;;;34.63;26.83;;;19.80;82.90;;;;;;5055875;28;20196;-87
2021/06/18 01:57:06;;;;;;;31.08;25.85;;;19.70;82.90;;;;;;5055940;28;20179;-87
2021/06/18 01:59:35;;;;;;;31.23;26.70;;;19.70;82.70;;;;;;5037918;28;20184;-87
2021/06/18 02:02:04;;;;;;;34.55;28.40;;;19.70;83.10;;;;;;5037808;28;20200;-87
2021/06/18 02:04:32;;;;;;;33.95;27.77;;;19.70;82.80;;;;;;5162548;22;20334;-88
2021/06/18 02:06:59;;;;;;;36.80;25.90;;;19.80;83.00;;;;;;5055719;28;20172;-88
2021/06/18 02:09:26;;;;;;;40.17;30.73;;;19.80;82.70;;;;;;5055930;28;20168;-88
2021/06/18 02:11:54;;;;;;;37.38;30.13;;;19.70;84.10;;;;;;5037778;28;20176;-88
2021/06/18 02:14:23;;;;;;;37.95;32.92;;;19.70;84.10;;;;;;5037681;28;20291;-88
2021/06/18 02:16:53;;;;;;;35.22;31.35;;;19.60;84.80;;;;;;5037565;28;20182;-88
2021/06/18 02:19:21;;;;;;;48.75;32.15;;;19.60;84.90;;;;;;5037645;28;20627;-88
2021/06/18 02:21:50;;;;;;;35.97;31.70;;;19.60;84.80;;;;;;5055398;28;20223;-88
2021/06/18 02:24:19;;;;;;;38.88;32.30;;;19.60;84.90;;;;;;5037787;28;20196;-88
2021/06/18 02:26:46;;;;;;;36.03;31.17;;;19.70;84.80;;;;;;5037365;28;20172;-88
2021/06/18 02:29:12;;;;;;;33.75;30.13;;;19.70;84.50;;;;;;5055496;28;20237;-88
2021/06/18 02:31:39;;;;;;;37.90;28.60;;;19.70;84.30;;;;;;5037397;28;20171;-88
2021/06/18 02:34:07;;;;;;;38.90;30.50;;;19.70;84.00;;;;;;5055178;28;20252;-88
2021/06/18 02:36:33;;;;;;;35.88;29.17;;;19.70;83.80;;;;;;5037281;28;20184;-88
2021/06/18 02:38:59;;;;;;;39.35;31.20;;;19.70;83.60;;;;;;5055087;28;20259;-88
2021/06/18 02:41:24;;;;;;;42.53;33.35;;;19.80;83.90;;;;;;5037104;28;20223;-88
2021/06/18 02:43:50;;;;;;;37.78;33.63;;;19.70;84.40;;;;;;5054962;28;20608;-88
2021/06/18 02:46:29;;;;;;;50.70;40.25;;;19.70;84.70;;;;;;5054924;28;20172;-88
2021/06/18 02:48:59;;;;;;;42.08;37.58;;;19.70;84.70;;;;;;5037118;28;20172;-88
2021/06/18 02:51:37;;;;;;;41.13;36.88;;;19.70;84.60;;;;;;5037192;28;20160;-88
2021/06/18 02:54:43;;;;;;;43.17;38.47;;;19.70;84.30;;;;;;5054819;28;20533;-88
2021/06/18 02:57:21;;;;;;;53.72;41.40;;;19.70;85.20;;;;;;5036929;28;20614;-88
2021/06/18 03:00:06;;;;;;;54.22;37.75;;;19.50;85.80;;;;;;5036917;28;20182;-88
2021/06/18 03:02:36;;;;;;;55.33;34.17;;;19.20;86.10;;;;;;5036713;28;20196;-88
2021/06/18 03:05:05;;;;;;;63.25;34.00;;;19.10;85.80;;;;;;5036664;28;20262;-88
2021/06/18 03:07:34;;;;;;;61.63;32.92;;;18.90;85.70;;;;;;5054565;28;20686;-88
2021/06/18 03:10:04;;;;;;;61.72;34.70;;;18.90;85.70;;;;;;5036703;28;20800;-88
2021/06/18 03:12:32;;;;;;;64.32;34.33;;;18.90;85.60;;;;;;5054364;28;20617;-88
2021/06/18 03:15:04;;;;;;;52.72;32.58;;;18.90;85.70;;;;;;5036477;28;20729;-88
2021/06/18 03:17:33;;;;;;;70.80;35.50;;;18.80;85.80;;;;;;5036466;28;20183;-88
2021/06/18 03:20:03;;;;;;;60.22;35.58;;;18.60;86.10;;;;;;5054315;28;20175;-88
2021/06/18 03:22:32;;;;;;;65.18;34.08;;;18.50;86.40;;;;;;5036336;28;20200;-88
2021/06/18 03:25:01;;;;;;;69.28;32.80;;;18.50;86.40;;;;;;5036179;28;20206;-88
2021/06/18 03:27:29;;;;;;;60.65;33.00;;;18.70;86.30;;;;;;5054125;28;20255;-88
2021/06/18 03:29:55;;;;;;;51.90;31.35;;;18.70;86.10;;;;;;5036225;28;20186;-88
2021/06/18 03:32:23;;;;;;;43.65;30.25;;;18.80;85.70;;;;;;5036201;28;20651;-88
2021/06/18 03:34:49;;;;;;;42.10;30.77;;;19.00;85.20;;;;;;5053863;28;20200;-88
2021/06/18 03:37:16;;;;;;;57.05;33.38;;;19.00;84.80;;;;;;5036122;28;20172;-88
2021/06/18 03:39:42;;;;;;;49.80;31.90;;;19.10;84.70;;;;;;5036004;28;20180;-88
2021/06/18 03:42:08;;;;;;;43.92;29.02;;;19.10;84.60;;;;;;5053795;28;20203;-88
2021/06/18 03:44:35;;;;;;;56.28;35.38;;;19.20;84.40;;;;;;5035837;28;20597;-88
2021/06/18 03:47:02;;;;;;;44.75;31.75;;;19.20;84.40;;;;;;5036358;28;20176;-88
2021/06/18 03:49:28;;;;;;;38.88;29.50;;;19.30;84.30;;;;;;5035937;28;20172;-88
2021/06/18 03:51:55;;;;;;;53.28;30.25;;;19.40;84.00;;;;;;5053738;28;20518;-88
2021/06/18 03:54:22;;;;;;;43.58;33.95;;;19.50;83.60;;;;;;5053570;28;20214;-88
2021/06/18 03:56:49;;;;;;;54.80;34.20;;;19.50;84.10;;;;;;5035792;28;20203;-88
2021/06/18 03:59:19;;;;;;;53.50;33.50;;;19.30;84.70;;;;;;5035812;28;20176;-88
2021/06/18 04:01:50;;;;;;;53.60;32.42;;;19.30;84.70;;;;;;5035509;28;20291;-88
2021/06/18 04:04:16;;;;;;;67.80;40.00;;;19.40;84.60;;;;;;5035529;28;20222;-88
2021/06/18 04:06:43;;;;;;;64.45;39.80;;;19.40;84.90;;;;;;5035622;28;20659;-88
2021/06/18 04:09:09;;;;;;;57.70;39.53;;;19.30;85.70;;;;;;5035241;28;20642;-88
2021/06/18 04:11:35;;;;;;;60.38;39.97;;;19.20;86.20;;;;;;5035414;28;20186;-88
2021/06/18 04:14:02;;;;;;;64.45;39.60;;;19.10;86.70;;;;;;5035556;28;20180;-88
2021/06/18 04:16:28;;;;;;;66.18;42.95;;;19.20;86.80;;;;;;5053326;28;20176;-88
2021/06/18 04:18:54;;;;;;;68.40;43.00;;;19.20;86.70;;;;;;5053319;28;20183;-88
2021/06/18 04:21:23;;;;;;;66.32;44.08;;;19.40;86.80;;;;;;5053264;28;20211;-88
2021/06/18 04:23:49;;;;;;;67.53;42.30;;;19.40;87.00;;;;;;5035419;28;20172;-88
2021/06/18 04:26:15;;;;;;;48.80;39.40;;;19.40;87.00;;;;;;5035368;28;20175;-88
2021/06/18 04:28:42;;;;;;;52.00;40.97;;;19.50;86.50;;;;;;5035426;28;20210;-88
2021/06/18 04:31:08;;;;;;;61.83;49.05;;;19.60;85.80;;;;;;5035395;28;20213;-88
2021/06/18 04:33:35;;;;;;;52.95;47.30;;;19.60;86.30;;;;;;5053147;28;20168;-88
2021/06/18 04:36:01;;;;;;;48.85;41.15;;;19.70;86.00;;;;;;5035207;28;20211;-88
2021/06/18 04:38:27;;;;;;;43.58;38.88;;;19.70;85.90;;;;;;5053111;28;20643;-88
2021/06/18 04:40:53;;;;;;;47.67;39.72;;;19.80;85.60;;;;;;5052971;28;20222;-88
2021/06/18 04:43:19;;;;;;;50.92;41.40;;;19.90;85.70;;;;;;5035389;28;20172;-88
2021/06/18 04:45:45;;;;;;;48.80;38.97;;;19.90;85.30;;;;;;5035142;28;20192;-88
2021/06/18 04:48:11;;;;;;;46.05;39.42;;;19.90;85.30;;;;;;5053295;28;20172;-88
2021/06/18 04:50:37;;;;;;;44.38;37.42;;;19.90;85.30;;;;;;5053026;28;20175;-88
2021/06/18 04:53:06;;;;;;;46.10;40.20;;;20.00;85.00;;;;;;5052972;28;20655;-88
2021/06/18 04:55:31;;;;;;;45.75;40.53;;;20.00;84.90;;;;;;5052912;28;20195;-88
2021/06/18 04:57:58;;;;;;;48.45;40.50;;;20.10;86.00;;;;;;5035738;28;20172;-88
2021/06/18 05:00:25;;;;;;;50.95;41.42;;;20.20;86.40;;;;;;5035161;28;20180;-88
2021/06/18 05:02:51;;;;;;;46.05;38.45;;;20.20;86.40;;;;;;5052802;28;20620;-88
2021/06/18 05:05:17;;;;;;;41.95;37.47;;;20.20;85.90;;;;;;5053112;28;20209;-88
2021/06/18 05:07:43;;;;;;;43.08;38.42;;;20.20;85.30;;;;;;5052898;28;20259;-88
2021/06/18 05:10:09;;;;;;;47.55;39.70;;;20.20;85.30;;;;;;5052841;28;20214;-89
2021/06/18 05:12:35;;;;;;;45.58;38.10;;;20.30;86.10;;;;;;5035080;28;20717;-88
2021/06/18 05:15:02;;;;;;;44.00;38.13;;;20.30;85.70;;;;;;5034903;28;20195;-88
2021/06/18 05:17:28;;;;;;;40.28;33.88;;;20.40;85.60;;;;;;5034905;28;20758;-88
2021/06/18 05:19:53;;;;;;;41.70;35.05;;;20.50;85.10;;;;;;5034921;28;20263;-88
2021/06/18 05:22:19;;;;;;;41.05;35.38;;;20.60;85.10;;;;;;5037891;28;20207;-88
2021/06/18 05:24:44;;;;;;;43.45;34.78;;;20.60;85.00;;;;;;5038600;28;20188;-88
2021/06/18 05:27:10;;;;;;;45.67;35.00;;;20.80;84.90;;;;;;5038750;28;20176;-88
2021/06/18 05:29:36;;;;;;;38.08;32.60;;;20.90;84.90;;;;;;5056504;28;20221;-88
2021/06/18 05:32:03;;;;;;;39.25;32.67;;;21.00;84.60;;;;;;5056701;28;20663;-88
2021/06/18 05:34:29;;;;;;;43.05;33.45;;;21.20;84.20;;;;;;5038559;28;20200;-88
2021/06/18 05:36:54;;;;;;;39.15;31.98;;;21.30;84.00;;;;;;5038699;28;20176;-88
2021/06/18 05:39:20;;;;;;;38.88;32.53;;;21.30;83.70;;;;;;5038436;28;20176;-88
2021/06/18 05:41:45;;;;;;;36.67;29.23;;;21.50;83.30;;;;;;5038607;28;20195;-88
2021/06/18 05:44:11;;;;;;;38.47;30.50;;;21.60;82.60;;;;;;5038534;28;20207;-88
2021/06/18 05:46:37;;;;;;;33.95;28.60;;;21.70;82.40;;;;;;5038247;28;20266;-88
2021/06/18 05:49:03;;;;;;;34.38;28.17;;;21.70;81.90;;;;;;5038219;28;20176;-87
2021/06/18 05:51:29;;;;;;;34.17;28.10;;;21.80;82.00;;;;;;5038181;28;20183;-86
2021/06/18 05:53:54;;;;;;;41.47;30.17;;;21.90;82.10;;;;;;5038070;28;20187;-86
2021/06/18 05:56:20;;;;;;;34.33;27.00;;;22.00;81.20;;;;;;5055947;28;20176;-86
2021/06/18 05:58:46;;;;;;;32.38;26.92;;;22.10;81.40;;;;;;5055866;28;20172;-86
2021/06/18 06:01:12;;;;;;;32.75;26.73;;;22.20;81.30;;;;;;5055762;28;20223;-86
2021/06/18 06:03:39;;;;;;;31.02;25.33;;;22.20;80.30;;;;;;5037957;28;20175;-86
2021/06/18 06:06:05;;;;;;;28.50;24.85;;;22.30;80.00;;;;;;5038039;28;20271;-87
2021/06/18 06:08:31;;;;;;;38.58;25.05;;;22.40;80.20;;;;;;5037880;28;20168;-86
2021/06/18 06:10:57;;;;;;;39.70;26.98;;;22.50;79.90;;;;;;5037820;28;20195;-86
2021/06/18 06:13:25;;;;;;;29.10;25.40;;;22.60;80.40;;;;;;5055607;28;20164;-86
2021/06/18 06:15:50;;;;;;;28.67;24.92;;;22.70;79.70;;;;;;5037683;28;20208;-87
2021/06/18 06:18:16;;;;;;;26.98;23.85;;;22.60;79.20;;;;;;5037826;28;20682;-87
2021/06/18 06:20:43;;;;;;;35.28;24.75;;;22.70;79.50;;;;;;5037601;28;20208;-86
2021/06/18 06:23:10;;;;;;;32.80;24.75;;;22.80;78.70;;;;;;5055382;28;20554;-86
2021/06/18 06:25:36;;;;;;;26.45;22.80;;;22.90;78.40;;;;;;5055293;28;20184;-86
2021/06/18 06:28:02;;;;;;;31.45;24.63;;;22.90;78.50;;;;;;5055415;28;20191;-86
2021/06/18 06:30:27;;;;;;;31.27;23.80;;;23.00;79.00;;;;;;5055259;28;20171;-86
2021/06/18 06:32:53;;;;;;;25.67;22.38;;;23.20;78.80;;;;;;5054579;28;20182;-86
2021/06/18 06:35:19;;;;;;;27.25;22.40;;;23.20;77.30;;;;;;5055143;28;20223;-86
2021/06/18 06:37:44;;;;;;;30.30;21.65;;;23.20;77.40;;;;;;5055227;28;20701;-86
2021/06/18 06:40:11;;;;;;;27.10;20.48;;;23.30;78.00;;;;;;5037226;28;20229;-87
2021/06/18 06:42:37;;;;;;;30.45;21.17;;;23.50;77.30;;;;;;5037029;28;20227;-87
2021/06/18 06:45:04;;;;;;;28.42;19.90;;;23.70;76.60;;;;;;5037137;28;20223;-87
2021/06/18 06:47:30;;;;;;;25.27;19.67;;;23.80;75.90;;;;;;5037110;28;20194;-86
2021/06/18 06:49:56;;;;;;;27.15;19.08;;;23.90;75.80;;;;;;5054860;28;20168;-87
2021/06/18 06:52:21;;;;;;;24.23;19.02;;;24.00;74.70;;;;;;5037100;28;20175;-87
2021/06/18 06:54:47;;;;;;;25.17;19.73;;;24.00;74.50;;;;;;5054715;28;20192;-87
2021/06/18 06:57:15;;;;;;;22.33;18.30;;;23.90;75.50;;;;;;5036932;28;20180;-87
2021/06/18 06:59:41;;;;;;;25.67;21.98;;;23.90;75.50;;;;;;5036849;28;20191;-86
2021/06/18 07:02:07;;;;;;;21.58;19.35;;;23.90;75.00;;;;;;5036747;28;20593;-87
2021/06/18 07:04:33;;;;;;;27.15;21.88;;;23.90;75.80;;;;;;5036778;28;20230;-87
2021/06/18 07:06:58;;;;;;;21.77;19.45;;;23.80;76.60;;;;;;5054921;28;20160;-87
2021/06/18 07:09:24;;;;;;;26.17;20.15;;;23.90;75.90;;;;;;5036684;28;20169;-87
2021/06/18 07:11:50;;;;;;;28.35;19.52;;;24.00;75.60;;;;;;5036898;28;20176;-87
2021/06/18 07:14:15;;;;;;;28.98;19.83;;;24.20;74.70;;;;;;5036564;28;20196;-87
2021/06/18 07:16:41;;;;;;;26.13;18.25;;;24.30;74.80;;;;;;5036550;28;20172;-87
2021/06/18 07:19:07;;;;;;;29.27;22.23;;;24.40;74.40;;;;;;5036431;28;20180;-86
2021/06/18 07:21:32;;;;;;;29.00;21.77;;;24.40;74.70;;;;;;5036435;28;20634;-86
2021/06/18 07:23:59;;;;;;;27.90;22.55;;;24.30;75.10;;;;;;5036282;28;20176;-87
2021/06/18 07:26:25;;;;;;;33.15;23.70;;;24.50;75.60;;;;;;5036449;28;20275;-86
2021/06/18 07:28:51;;;;;;;27.52;21.73;;;24.50;75.40;;;;;;5036347;28;20179;-87
2021/06/18 07:31:16;;;;;;;29.90;25.30;;;24.50;75.40;;;;;;5036298;28;20176;-87
2021/06/18 07:33:42;;;;;;;35.00;23.60;;;24.70;75.10;;;;;;5054017;28;20182;-87
2021/06/18 07:36:08;;;;;;;33.03;25.80;;;24.90;74.70;;;;;;5036110;28;20294;-87
2021/06/18 07:38:33;;;;;;;28.67;24.02;;;24.80;74.80;;;;;;5036184;28;20180;-87
2021/06/18 07:40:59;;;;;;;25.63;22.90;;;24.70;75.50;;;;;;5036058;28;20198;-87
2021/06/18 07:43:25;;;;;;;26.90;22.63;;;24.90;75.30;;;;;;5053946;28;20175;-87
2021/06/18 07:45:50;;;;;;;32.25;25.83;;;25.00;75.00;;;;;;5035016;28;20307;-87
2021/06/18 07:48:16;;;;;;;37.60;27.45;;;25.20;74.00;;;;;;5036030;28;20666;-87
2021/06/18 07:50:42;;;;;;;31.05;27.10;;;25.10;75.20;;;;;;5053787;28;20164;-87
2021/06/18 07:53:08;;;;;;;32.75;26.30;;;25.00;75.70;;;;;;5035892;28;20187;-87
2021/06/18 07:55:34;;;;;;;31.70;28.30;;;25.10;75.30;;;;;;5053659;28;20675;-87
2021/06/18 07:58:00;;;;;;;37.38;27.23;;;24.80;75.00;;;;;;5053932;28;20265;-86
2021/06/18 08:00:25;;;;;;;30.30;24.13;;;24.80;76.60;;;;;;5035777;28;20183;-87
2021/06/18 08:02:51;;;;;;;30.08;24.48;;;25.10;75.10;;;;;;5053458;28;20222;-87
2021/06/18 08:05:17;;;;;;;27.33;23.88;;;25.30;75.00;;;;;;5077860;22;20228;-87
2021/06/18 08:07:45;;;;;;;23.00;20.70;;;25.50;73.80;;;;;;5053830;28;20192;-87
2021/06/18 08:10:13;;;;;;;24.48;19.15;;;25.60;72.30;;;;;;5035740;28;20262;-86
2021/06/18 08:12:40;;;;;;;21.42;18.27;;;25.70;71.00;;;;;;5053419;28;20168;-87
2021/06/18 08:15:07;;;;;;;27.67;21.60;;;25.80;70.10;;;;;;5053394;28;20613;-86
2021/06/18 08:17:33;;;;;;;23.92;21.52;;;25.80;71.70;;;;;;5053349;28;20241;-86
2021/06/18 08:19:59;;;;;;;29.30;22.50;;;25.90;72.50;;;;;;5035453;28;20172;-87
2021/06/18 08:22:25;;;;;;;26.13;23.23;;;25.90;70.90;;;;;;5035566;28;20593;-86
2021/06/18 08:24:51;;;;;;;26.42;20.08;;;25.90;71.50;;;;;;5036004;28;20188;-85
2021/06/18 08:27:17;;;;;;;25.13;20.63;;;25.80;72.50;;;;;;5035607;28;20180;-86
2021/06/18 08:29:42;;;;;;;26.50;19.60;;;26.10;70.20;;;;;;5054150;28;20171;-86
2021/06/18 08:32:08;;;;;;;23.13;19.48;;;26.30;69.60;;;;;;5035381;28;20527;-86
2021/06/18 08:34:34;;;;;;;26.15;21.95;;;26.50;68.00;;;;;;5053781;28;20191;-85
2021/06/18 08:36:59;;;;;;;24.20;21.75;;;26.40;69.00;;;;;;5035753;28;20302;-86
2021/06/18 08:39:25;;;;;;;20.88;17.83;;;26.40;68.90;;;;;;5053565;28;20172;-86
2021/06/18 08:41:51;;;;;;;23.75;21.08;;;26.50;68.60;;;;;;5035312;28;20231;-86
2021/06/18 08:44:18;;;;;;;23.42;20.67;;;26.60;68.70;;;;;;5035288;28;20263;-86
2021/06/18 08:46:43;;;;;;;23.35;20.98;;;26.50;70.50;;;;;;5035537;28;20184;-87
2021/06/18 08:49:09;;;;;;;22.98;20.58;;;26.60;69.60;;;;;;5035632;28;20175;-86
2021/06/18 08:51:35;;;;;;;23.63;19.80;;;26.50;69.70;;;;;;5053295;28;20716;-86
2021/06/18 08:54:01;;;;;;;24.58;21.17;;;26.90;69.80;;;;;;5052948;28;20242;-87
2021/06/18 08:56:27;;;;;;;26.13;20.05;;;26.90;68.70;;;;;;5054658;28;20198;-85
2021/06/18 08:58:53;;;;;;;25.10;20.98;;;27.10;68.20;;;;;;5039203;28;20202;-85
2021/06/18 09:01:19;;;;;;;23.98;20.58;;;27.00;70.10;;;;;;5039085;28;20253;-83
2021/06/18 09:03:49;;;;;;;19.75;17.02;;;27.00;67.60;;;;;;5057040;28;20640;-85
2021/06/18 09:06:20;;;;;;;19.42;16.77;;;27.00;70.00;;;;;;5056724;28;20231;-85
2021/06/18 09:08:47;;;;;;;17.58;15.43;;;27.20;68.00;;;;;;5038991;28;20176;-85
2021/06/18 09:11:51;;;;;;;23.63;18.92;;;27.30;67.40;;;;;;5039121;28;20183;-85
2021/06/18 09:14:16;;;;;;;21.38;16.02;;;27.60;65.20;;;;;;5038775;28;20179;-85
2021/06/18 09:16:43;;;;;;;18.15;15.65;;;27.50;67.40;;;;;;5038823;28;20178;-85
2021/06/18 09:19:27;;;;;;;20.55;16.90;;;27.90;64.40;;;;;;5038995;28;20176;-85
2021/06/18 09:22:01;;;;;;;19.88;16.10;;;28.20;62.50;;;;;;5038690;28;20207;-85
2021/06/18 09:24:36;;;;;;;21.55;15.77;;;28.20;61.80;;;;;;5038574;28;20191;-85
2021/06/18 09:27:04;;;;;;;23.02;16.65;;;28.20;63.80;;;;;;5056465;28;20156;-85
2021/06/18 09:29:30;;;;;;;27.83;17.95;;;28.20;62.10;;;;;;5056413;28;20703;-84
2021/06/18 09:31:59;;;;;;;19.77;16.15;;;27.90;63.40;;;;;;5056651;28;20264;-85
2021/06/18 09:34:51;;;;;;;20.55;13.80;;;28.00;64.20;;;;;;5038698;28;20565;-85
2021/06/18 09:37:23;;;;;;;16.60;14.80;;;28.20;63.40;;;;;;5038482;28;20250;-84
2021/06/18 09:39:56;;;;;;;17.65;13.30;;;28.10;61.00;;;;;;5038430;28;20540;-84
2021/06/18 09:42:24;;;;;;;19.85;12.77;;;28.30;63.10;;;;;;5056158;28;20245;-84
2021/06/18 09:45:11;;;;;;;17.13;12.13;;;28.60;62.30;;;;;;5056049;28;20207;-84
2021/06/18 09:47:39;;;;;;;16.58;12.52;;;28.80;62.40;;;;;;5038172;28;20172;-85
2021/06/18 09:50:14;;;;;;;18.70;11.25;;;29.00;60.20;;;;;;5038124;28;20172;-85
2021/06/18 09:52:41;;;;;;;13.48;11.93;;;29.30;59.20;;;;;;5055960;28;20164;-84
2021/06/18 09:55:08;;;;;;;17.42;13.38;;;29.20;58.60;;;;;;5055880;28;20738;-84
2021/06/18 09:57:43;;;;;;;15.93;12.07;;;28.90;59.80;;;;;;5055802;28;20259;-84
2021/06/18 10:00:17;;;;;;;14.30;12.07;;;29.10;60.00;;;;;;5055884;28;20198;-84
2021/06/18 10:02:48;;;;;;;24.00;13.43;;;29.30;57.80;;;;;;5037847;28;20565;-83
2021/06/18 10:05:19;;;;;;;14.27;10.48;;;29.20;57.50;;;;;;5056069;28;20212;-84
2021/06/18 10:07:47;;;;;;;22.27;11.43;;;29.40;60.70;;;;;;5036771;28;20595;-84
2021/06/18 10:10:23;;;;;;;19.48;11.63;;;29.40;58.70;;;;;;5055786;28;20168;-84
2021/06/18 10:12:50;;;;;;;15.55;12.07;;;29.50;58.70;;;;;;5055674;28;20251;-84
2021/06/18 10:15:18;;;;;;;15.90;12.20;;;29.80;57.70;;;;;;5055907;28;20267;-84
2021/06/18 10:17:46;;;;;;;13.90;10.75;;;29.70;57.30;;;;;;5055734;28;20200;-84
2021/06/18 10:20:18;;;;;;;12.48;9.70;;;29.50;58.70;;;;;;5055619;28;20226;-84
2021/06/18 10:22:59;;;;;;;12.68;9.80;;;29.70;58.70;;;;;;5055435;28;20210;-84
2021/06/18 10:25:52;;;;;;;16.60;9.82;;;29.70;57.30;;;;;;5055406;28;20187;-84
2021/06/18 10:28:21;;;;;;;15.50;10.73;;;29.90;57.20;;;;;;5036909;28;20186;-84
2021/06/18 10:30:52;;;;;;;16.38;10.75;;;30.00;56.80;;;;;;5037433;28;20168;-84
2021/06/18 10:33:27;;;;;;;16.48;12.13;;;29.80;56.00;;;;;;5037865;28;20164;-84
2021/06/18 10:35:59;;;;;;;16.58;11.57;;;29.80;56.50;;;;;;5037217;28;20199;-83
2021/06/18 10:38:34;;;;;;;16.55;11.35;;;29.70;56.50;;;;;;5037270;28;20198;-84
2021/06/18 10:41:24;;;;;;;15.57;10.40;;;29.80;56.70;;;;;;5055146;28;20148;-83
2021/06/18 10:43:58;;;;;;;11.93;10.60;;;29.80;55.70;;;;;;5044996;28;20255;-84
2021/06/18 10:46:32;;;;;;;12.90;11.50;;;29.90;54.90;;;;;;5055007;28;20685;-83
2021/06/18 10:49:01;;;;;;;17.70;12.30;;;29.80;56.70;;;;;;5055083;28;20208;-83
2021/06/18 10:51:26;;;;;;;15.90;10.63;;;29.70;57.10;;;;;;5037463;28;20187;-83
2021/06/18 10:54:34;;;;;;;15.20;10.70;;;29.70;56.70;;;;;;5056235;28;20168;-83
2021/06/18 10:57:05;;;;;;;14.35;10.25;;;29.80;55.30;;;;;;5055509;28;20569;-83
2021/06/18 10:59:33;;;;;;;16.25;11.65;;;29.90;56.90;;;;;;5037241;28;20160;-84
2021/06/18 11:02:02;;;;;;;18.60;11.10;;;29.90;54.80;;;;;;5054735;28;20192;-84
2021/06/18 11:04:38;;;;;;;15.57;11.02;;;29.90;56.90;;;;;;5055067;28;20220;-84
2021/06/18 11:07:27;;;;;;;15.55;10.85;;;30.00;55.30;;;;;;5055465;28;20199;-84
2021/06/18 11:10:28;;;;;;;12.32;9.15;;;30.10;55.30;;;;;;5025537;28;20230;-83
2021/06/18 11:13:01;;;;;;;12.25;10.75;;;30.30;55.40;;;;;;5029034;28;20248;-84
2021/06/18 11:15:30;;;;;;;13.98;9.40;;;30.60;53.80;;;;;;5036709;28;20198;-84
2021/06/18 11:18:19;;;;;;;12.25;9.48;;;31.00;55.00;;;;;;5054543;28;20168;-83
2021/06/18 11:20:46;;;;;;;12.88;9.68;;;31.30;51.70;;;;;;5054234;28;20227;-85
2021/06/18 11:23:28;;;;;;;11.10;9.00;;;31.30;52.20;;;;;;5054288;28;20164;-84
2021/06/18 11:26:00;;;;;;;12.23;8.48;;;31.30;53.70;;;;;;5036610;28;20680;-83
2021/06/18 11:28:32;;;;;;;12.35;8.60;;;31.40;52.80;;;;;;5054511;28;20202;-83
2021/06/18 11:31:16;;;;;;;17.65;8.85;;;31.20;52.80;;;;;;5054685;28;20180;-84
2021/06/18 11:33:50;;;;;;;8.98;8.13;;;31.00;50.90;;;;;;5054217;28;20160;-84
2021/06/18 11:36:25;;;;;;;13.52;8.32;;;31.10;53.50;;;;;;5054095;28;20188;-84
2021/06/18 11:38:59;;;;;;;16.95;7.82;;;31.10;52.90;;;;;;5036205;28;20225;-84
2021/06/18 11:41:31;;;;;;;13.90;8.65;;;31.30;52.80;;;;;;5054272;28;20621;-83
2021/06/18 11:44:01;;;;;;;11.57;7.85;;;31.40;51.10;;;;;;5054046;28;20612;-83
2021/06/18 11:46:29;;;;;;;12.07;8.73;;;31.50;52.90;;;;;;5037080;28;20574;-84
2021/06/18 11:48:57;;;;;;;10.40;8.80;;;31.40;51.00;;;;;;5055769;28;20217;-84
2021/06/18 11:51:24;;;;;;;11.50;8.25;;;31.60;51.80;;;;;;5037084;28;20215;-84
2021/06/18 11:53:50;;;;;;;9.73;7.88;;;31.60;52.70;;;;;;5036974;28;20621;-85
2021/06/18 11:56:16;;;;;;;9.98;8.00;;;31.70;50.90;;;;;;5036035;28;20226;-85
2021/06/18 11:58:44;;;;;;;10.02;7.75;;;31.70;50.30;;;;;;5036457;28;20180;-84
2021/06/18 12:01:18;;;;;;;12.50;8.02;;;31.90;51.40;;;;;;5054648;28;20202;-85
2021/06/18 12:03:51;;;;;;;11.07;8.43;;;31.80;49.90;;;;;;5036226;28;20217;-85
2021/06/18 12:06:28;;;;;;;11.23;7.90;;;31.80;51.50;;;;;;5035982;28;20214;-85
2021/06/18 12:09:04;;;;;;;9.77;8.07;;;31.70;51.70;;;;;;5054053;28;20567;-86
2021/06/18 12:11:43;;;;;;;9.18;8.07;;;31.70;50.50;;;;;;5035520;28;20179;-85
2021/06/18 12:14:11;;;;;;;9.45;8.35;;;31.90;53.90;;;;;;5053606;28;20179;-85
2021/06/18 12:16:42;;;;;;;10.05;7.18;;;31.70;52.00;;;;;;5035764;28;20226;-85
2021/06/18 12:19:25;;;;;;;11.50;7.88;;;31.70;51.50;;;;;;5054095;28;20183;-86
2021/06/18 12:22:06;;;;;;;12.02;7.70;;;31.60;51.80;;;;;;5053707;28;20285;-85
2021/06/18 12:24:48;;;;;;;10.60;7.10;;;31.60;51.90;;;;;;5035556;28;20226;-85
2021/06/18 12:27:18;;;;;;;9.10;7.40;;;31.70;50.90;;;;;;5053888;28;20221;-85
2021/06/18 12:29:46;;;;;;;10.18;7.85;;;31.90;52.00;;;;;;5035576;28;20313;-85
2021/06/18 12:32:15;;;;;;;9.60;7.15;;;32.10;52.10;;;;;;5035261;28;20263;-85
2021/06/18 12:34:48;;;;;;;12.73;7.15;;;32.50;51.80;;;;;;5035793;28;20289;-85
2021/06/18 12:37:15;;;;;;;8.93;6.80;;;32.90;48.80;;;;;;5053335;28;20172;-85
2021/06/18 12:39:55;;;;;;;13.90;7.43;;;33.00;49.70;;;;;;5053128;28;20671;-84